Aviation Digital Data Service (ADDS)

Output produced by METARs form (0854 UTC 23 July 2019)
found at http://www.aviationweather.gov/metar/data/
 
METAR text: LIED 230755Z 16003KT CAVOK 30/19 Q1017 RMK FEW FEW200 VIS MIN 9999 WIND THR35 13002KT WIND THR17 /////KT BLU
Conditions at: LIED (DECIMOMANNU(IT-A, IT) observed 0755 UTC 23 July 2019
Temperature: 30.0°C (86°F)
Dewpoint: 19.0°C (66°F) [RH = 52%]
Pressure (altimeter): 30.03 inches Hg (1017.0 mb)
Winds: from the SSE (160 degrees) at 3 MPH (3 knots; 1.5 m/s)
Visibility: 6 or more miles (10+ km)
Ceiling: ceiling and visibility are OK
Clouds: unknown
Weather: no significant weather observed at this time

METAR text: LIED 230655Z 33002KT CAVOK 25/20 Q1017 RMK FEW FEW200 VIS MIN 9999 WIND THR35 33002KT WIND THR17 /////KT BLU
Conditions at: LIED (DECIMOMANNU(IT-A, IT) observed 0655 UTC 23 July 2019
Temperature: 25.0°C (77°F)
Dewpoint: 20.0°C (68°F) [RH = 74%]
Pressure (altimeter): 30.03 inches Hg (1017.0 mb)
Winds: from the NNW (330 degrees) at 2 MPH (2 knots; 1.0 m/s)
Visibility: 6 or more miles (10+ km)
Ceiling: ceiling and visibility are OK
Clouds: unknown
Weather: no significant weather observed at this time

METAR text: LIED 230555Z 33003KT CAVOK 22/19 Q1017 RMK FEW FEW200 VIS MIN 9999 WIND THR35 34003KT WIND THR17 /////KT BLU
Conditions at: LIED (DECIMOMANNU(IT-A, IT) observed 0555 UTC 23 July 2019
Temperature: 22.0°C (72°F)
Dewpoint: 19.0°C (66°F) [RH = 83%]
Pressure (altimeter): 30.03 inches Hg (1017.0 mb)
Winds: from the NNW (330 degrees) at 3 MPH (3 knots; 1.5 m/s)
Visibility: 6 or more miles (10+ km)
Ceiling: ceiling and visibility are OK
Clouds: unknown
Weather: no significant weather observed at this time

METAR text: LIED 230455Z 34002KT CAVOK 21/18 Q1017 RMK SKC VIS MIN 9999 WIND THR35 34002KT WIND THR17 /////KT BLU
Conditions at: LIED (DECIMOMANNU(IT-A, IT) observed 0455 UTC 23 July 2019
Temperature: 21.0°C (70°F)
Dewpoint: 18.0°C (64°F) [RH = 83%]
Pressure (altimeter): 30.03 inches Hg (1017.0 mb)
Winds: from the NNW (340 degrees) at 2 MPH (2 knots; 1.0 m/s)
Visibility: 6 or more miles (10+ km)
Ceiling: ceiling and visibility are OK
Clouds: unknown
Weather: no significant weather observed at this time

METAR text: LIED 230355Z 35003KT CAVOK 21/18 Q1017 RMK SKC VIS MIN 9999 WIND THR35 35003KT WIND THR17 /////KT BLU
Conditions at: LIED (DECIMOMANNU(IT-A, IT) observed 0355 UTC 23 July 2019
Temperature: 21.0°C (70°F)
Dewpoint: 18.0°C (64°F) [RH = 83%]
Pressure (altimeter): 30.03 inches Hg (1017.0 mb)
Winds: from the N (350 degrees) at 3 MPH (3 knots; 1.5 m/s)
Visibility: 6 or more miles (10+ km)
Ceiling: ceiling and visibility are OK
Clouds: unknown
Weather: no significant weather observed at this time

METAR text: LIED 230255Z 35004KT CAVOK 22/19 Q1017 RMK SKC VIS MIN 9999 WIND THR35 34003KT WIND THR17 /////KT BLU
Conditions at: LIED (DECIMOMANNU(IT-A, IT) observed 0255 UTC 23 July 2019
Temperature: 22.0°C (72°F)
Dewpoint: 19.0°C (66°F) [RH = 83%]
Pressure (altimeter): 30.03 inches Hg (1017.0 mb)
Winds: from the N (350 degrees) at 5 MPH (4 knots; 2.1 m/s)
Visibility: 6 or more miles (10+ km)
Ceiling: ceiling and visibility are OK
Clouds: unknown
Weather: no significant weather observed at this time

METAR text: LIED 230155Z 35004KT CAVOK 22/19 Q1018 RMK SKC VIS MIN 9999 WIND THR35 34004KT WIND THR17 /////KT BLU
Conditions at: LIED (DECIMOMANNU(IT-A, IT) observed 0155 UTC 23 July 2019
Temperature: 22.0°C (72°F)
Dewpoint: 19.0°C (66°F) [RH = 83%]
Pressure (altimeter): 30.06 inches Hg (1018.0 mb)
Winds: from the N (350 degrees) at 5 MPH (4 knots; 2.1 m/s)
Visibility: 6 or more miles (10+ km)
Ceiling: ceiling and visibility are OK
Clouds: unknown
Weather: no significant weather observed at this time

METAR text: LIED 230055Z 33003KT CAVOK 23/21 Q1018 RMK SKC VIS MIN 9999 WIND THR35 33004KT WIND THR17 /////KT BLU
Conditions at: LIED (DECIMOMANNU(IT-A, IT) observed 0055 UTC 23 July 2019
Temperature: 23.0°C (73°F)
Dewpoint: 21.0°C (70°F) [RH = 89%]
Pressure (altimeter): 30.06 inches Hg (1018.0 mb)
Winds: from the NNW (330 degrees) at 3 MPH (3 knots; 1.5 m/s)
Visibility: 6 or more miles (10+ km)
Ceiling: ceiling and visibility are OK
Clouds: unknown
Weather: no significant weather observed at this time

METAR text: LIED 222355Z 35003KT CAVOK 24/22 Q1018 RMK SKC VIS MIN 9999 WIND THR35 35005KT WIND THR17 /////KT BLU
Conditions at: LIED (DECIMOMANNU(IT-A, IT) observed 2355 UTC 22 July 2019
Temperature: 24.0°C (75°F)
Dewpoint: 22.0°C (72°F) [RH = 89%]
Pressure (altimeter): 30.06 inches Hg (1018.0 mb)
Winds: from the N (350 degrees) at 3 MPH (3 knots; 1.5 m/s)
Visibility: 6 or more miles (10+ km)
Ceiling: ceiling and visibility are OK
Clouds: unknown
Weather: no significant weather observed at this time

METAR text: LIED 222255Z 33005KT CAVOK 25/23 Q1019 RMK SKC VIS MIN 9999 WIND THR35 34004KT WIND THR17 /////KT BLU
Conditions at: LIED (DECIMOMANNU(IT-A, IT) observed 2255 UTC 22 July 2019
Temperature: 25.0°C (77°F)
Dewpoint: 23.0°C (73°F) [RH = 89%]
Pressure (altimeter): 30.09 inches Hg (1019.0 mb)
Winds: from the NNW (330 degrees) at 6 MPH (5 knots; 2.6 m/s)
Visibility: 6 or more miles (10+ km)
Ceiling: ceiling and visibility are OK
Clouds: unknown
Weather: no significant weather observed at this time

METAR text: LIED 222155Z 34004KT CAVOK 26/23 Q1019 RMK SKC VIS MIN 9999 WIND THR35 34005KT WIND THR17 /////KT BLU
Conditions at: LIED (DECIMOMANNU(IT-A, IT) observed 2155 UTC 22 July 2019
Temperature: 26.0°C (79°F)
Dewpoint: 23.0°C (73°F) [RH = 84%]
Pressure (altimeter): 30.09 inches Hg (1019.0 mb)
Winds: from the NNW (340 degrees) at 5 MPH (4 knots; 2.1 m/s)
Visibility: 6 or more miles (10+ km)
Ceiling: ceiling and visibility are OK
Clouds: unknown
Weather: no significant weather observed at this time

METAR text: LIED 222055Z 35007KT CAVOK 27/23 Q1019 RMK SKC VIS MIN 9999 WIND THR35 36007KT WIND THR17 /////KT BLU
Conditions at: LIED (DECIMOMANNU(IT-A, IT) observed 2055 UTC 22 July 2019
Temperature: 27.0°C (81°F)
Dewpoint: 23.0°C (73°F) [RH = 79%]
Pressure (altimeter): 30.09 inches Hg (1019.0 mb)
Winds: from the N (350 degrees) at 8 MPH (7 knots; 3.6 m/s)
Visibility: 6 or more miles (10+ km)
Ceiling: ceiling and visibility are OK
Clouds: unknown
Weather: no significant weather observed at this time

METAR text: LIED 221955Z 33006KT CAVOK 28/21 Q1019 RMK SKC VIS MIN 9999 WIND THR35 34005KT WIND THR17 /////KT BLU
Conditions at: LIED (DECIMOMANNU(IT-A, IT) observed 1955 UTC 22 July 2019
Temperature: 28.0°C (82°F)
Dewpoint: 21.0°C (70°F) [RH = 66%]
Pressure (altimeter): 30.09 inches Hg (1019.0 mb)
Winds: from the NNW (330 degrees) at 7 MPH (6 knots; 3.1 m/s)
Visibility: 6 or more miles (10+ km)
Ceiling: ceiling and visibility are OK
Clouds: unknown
Weather: no significant weather observed at this time

METAR text: LIED 221855Z 30003KT CAVOK 29/23 Q1019 RMK SKC VIS MIN 9999 WIND THR35 34003KT WIND THR17 /////KT BLU
Conditions at: LIED (DECIMOMANNU(IT-A, IT) observed 1855 UTC 22 July 2019
Temperature: 29.0°C (84°F)
Dewpoint: 23.0°C (73°F) [RH = 70%]
Pressure (altimeter): 30.09 inches Hg (1019.0 mb)
Winds: from the WNW (300 degrees) at 3 MPH (3 knots; 1.5 m/s)
Visibility: 6 or more miles (10+ km)
Ceiling: ceiling and visibility are OK
Clouds: unknown
Weather: no significant weather observed at this time

METAR text: LIED 221755Z 13006KT CAVOK 32/22 Q1018 RMK SKC VIS MIN 9999 WIND THR35 13007KT WIND THR17 /////KT BLU
Conditions at: LIED (DECIMOMANNU(IT-A, IT) observed 1755 UTC 22 July 2019
Temperature: 32.0°C (90°F)
Dewpoint: 22.0°C (72°F) [RH = 56%]
Pressure (altimeter): 30.06 inches Hg (1018.0 mb)
Winds: from the SE (130 degrees) at 7 MPH (6 knots; 3.1 m/s)
Visibility: 6 or more miles (10+ km)
Ceiling: ceiling and visibility are OK
Clouds: unknown
Weather: no significant weather observed at this time

METAR text: LIED 221655Z 14008KT CAVOK 34/16 Q1018 RMK SKC VIS MIN 9999 WIND THR35 14009KT WIND THR17 /////KT BLU
Conditions at: LIED (DECIMOMANNU(IT-A, IT) observed 1655 UTC 22 July 2019
Temperature: 34.0°C (93°F)
Dewpoint: 16.0°C (61°F) [RH = 34%]
Pressure (altimeter): 30.06 inches Hg (1018.0 mb)
Winds: from the SE (140 degrees) at 9 MPH (8 knots; 4.1 m/s)
Visibility: 6 or more miles (10+ km)
Ceiling: ceiling and visibility are OK
Clouds: unknown
Weather: no significant weather observed at this time

METAR text: LIED 221555Z 13010KT CAVOK 34/16 Q1019 RMK SKC VIS MIN 9999 WIND THR35 15009KT WIND THR17 /////KT BLU
Conditions at: LIED (DECIMOMANNU(IT-A, IT) observed 1555 UTC 22 July 2019
Temperature: 34.0°C (93°F)
Dewpoint: 16.0°C (61°F) [RH = 34%]
Pressure (altimeter): 30.09 inches Hg (1019.0 mb)
Winds: from the SE (130 degrees) at 12 MPH (10 knots; 5.1 m/s)
Visibility: 6 or more miles (10+ km)
Ceiling: ceiling and visibility are OK
Clouds: unknown
Weather: no significant weather observed at this time

METAR text: LIED 221455Z 13013KT CAVOK 35/16 Q1020 RMK SKC VIS MIN 9999 WIND THR35 15012KT WIND THR17 /////KT BLU
Conditions at: LIED (DECIMOMANNU(IT-A, IT) observed 1455 UTC 22 July 2019
Temperature: 35.0°C (95°F)
Dewpoint: 16.0°C (61°F) [RH = 32%]
Pressure (altimeter): 30.12 inches Hg (1020.0 mb)
Winds: from the SE (130 degrees) at 15 MPH (13 knots; 6.7 m/s)
Visibility: 6 or more miles (10+ km)
Ceiling: ceiling and visibility are OK
Clouds: unknown
Weather: no significant weather observed at this time

METAR text: LIED 221355Z 14011KT 9999 FEW004 35/16 Q1020 RMK FEW VIS MIN 9999 WIND THR35 14013KT WIND THR17 /////KT BLU
Conditions at: LIED (DECIMOMANNU(IT-A, IT) observed 1355 UTC 22 July 2019
Temperature: 35.0°C (95°F)
Dewpoint: 16.0°C (61°F) [RH = 32%]
Pressure (altimeter): 30.12 inches Hg (1020.0 mb)
Winds: from the SE (140 degrees) at 13 MPH (11 knots; 5.7 m/s)
Visibility: 6 or more miles (10+ km)
Ceiling: at least 12,000 feet AGL
Clouds: few clouds at 400 feet AGL
Weather: no significant weather observed at this time

METAR text: LIED 221255Z 14014KT 9999 FU FEW003 35/14 Q1019 RMK FEW VIS MIN 5000S WIND THR35 15014KT WIND THR17 /////KT WHT
Conditions at: LIED (DECIMOMANNU(IT-A, IT) observed 1255 UTC 22 July 2019
Temperature: 35.0°C (95°F)
Dewpoint: 14.0°C (57°F) [RH = 28%]
Pressure (altimeter): 30.09 inches Hg (1019.0 mb)
Winds: from the SE (140 degrees) at 16 MPH (14 knots; 7.2 m/s)
Visibility: 6 or more miles (10+ km)
Ceiling: at least 12,000 feet AGL
Clouds: few clouds at 300 feet AGL
Weather: FU  (smoke)

METAR text: LIED 221155Z 17007KT CAVOK 37/12 Q1020 RMK SKC VIS MIN 9999 WIND THR35 16007KT WIND THR17 /////KT BLU
Conditions at: LIED (DECIMOMANNU(IT-A, IT) observed 1155 UTC 22 July 2019
Temperature: 37.0°C (99°F)
Dewpoint: 12.0°C (54°F) [RH = 22%]
Pressure (altimeter): 30.12 inches Hg (1020.0 mb)
Winds: from the S (170 degrees) at 8 MPH (7 knots; 3.6 m/s)
Visibility: 6 or more miles (10+ km)
Ceiling: ceiling and visibility are OK
Clouds: unknown
Weather: no significant weather observed at this time

METAR text: LIED 221055Z 13005KT CAVOK 35/15 Q1020 RMK SKC VIS MIN 9999 WIND THR35 16005KT WIND THR17 /////KT BLU
Conditions at: LIED (DECIMOMANNU(IT-A, IT) observed 1055 UTC 22 July 2019
Temperature: 35.0°C (95°F)
Dewpoint: 15.0°C (59°F) [RH = 30%]
Pressure (altimeter): 30.12 inches Hg (1020.0 mb)
Winds: from the SE (130 degrees) at 6 MPH (5 knots; 2.6 m/s)
Visibility: 6 or more miles (10+ km)
Ceiling: ceiling and visibility are OK
Clouds: unknown
Weather: no significant weather observed at this time

METAR text: LIED 220955Z 22003KT CAVOK 35/17 Q1020 RMK SKC VIS MIN 9999 WIND THR35 17003KT WIND THR17 /////KT BLU
Conditions at: LIED (DECIMOMANNU(IT-A, IT) observed 0955 UTC 22 July 2019
Temperature: 35.0°C (95°F)
Dewpoint: 17.0°C (63°F) [RH = 34%]
Pressure (altimeter): 30.12 inches Hg (1020.0 mb)
Winds: from the SW (220 degrees) at 3 MPH (3 knots; 1.5 m/s)
Visibility: 6 or more miles (10+ km)
Ceiling: ceiling and visibility are OK
Clouds: unknown
Weather: no significant weather observed at this time

METAR text: LIED 220855Z 20003KT CAVOK 32/16 Q1020 RMK SKC VIS MIN 9999 WIND THR35 19003KT WIND THR17 /////KT BLU
Conditions at: LIED (DECIMOMANNU(IT-A, IT) observed 0855 UTC 22 July 2019
Temperature: 32.0°C (90°F)
Dewpoint: 16.0°C (61°F) [RH = 38%]
Pressure (altimeter): 30.12 inches Hg (1020.0 mb)
Winds: from the SSW (200 degrees) at 3 MPH (3 knots; 1.5 m/s)
Visibility: 6 or more miles (10+ km)
Ceiling: ceiling and visibility are OK
Clouds: unknown
Weather: no significant weather observed at this time

METAR text: LIED 220755Z 25003KT CAVOK 28/20 Q1021 RMK SKC VIS MIN 9999 WIND THR35 29002KT WIND THR17 /////KT BLU
Conditions at: LIED (DECIMOMANNU(IT-A, IT) observed 0755 UTC 22 July 2019
Temperature: 28.0°C (82°F)
Dewpoint: 20.0°C (68°F) [RH = 62%]
Pressure (altimeter): 30.15 inches Hg (1021.0 mb)
Winds: from the WSW (250 degrees) at 3 MPH (3 knots; 1.5 m/s)
Visibility: 6 or more miles (10+ km)
Ceiling: ceiling and visibility are OK
Clouds: unknown
Weather: no significant weather observed at this time

METAR text: LIED 220655Z 30003KT CAVOK 24/19 Q1020 RMK SKC VIS MIN 9999 WIND THR35 30003KT WIND THR17 /////KT BLU
Conditions at: LIED (DECIMOMANNU(IT-A, IT) observed 0655 UTC 22 July 2019
Temperature: 24.0°C (75°F)
Dewpoint: 19.0°C (66°F) [RH = 74%]
Pressure (altimeter): 30.12 inches Hg (1020.0 mb)
Winds: from the WNW (300 degrees) at 3 MPH (3 knots; 1.5 m/s)
Visibility: 6 or more miles (10+ km)
Ceiling: ceiling and visibility are OK
Clouds: unknown
Weather: no significant weather observed at this time

METAR text: LIED 220555Z 31003KT CAVOK 21/18 Q1020 RMK SKC VIS MIN 9999 WIND THR35 31002KT WIND THR17 /////KT BLU
Conditions at: LIED (DECIMOMANNU(IT-A, IT) observed 0555 UTC 22 July 2019
Temperature: 21.0°C (70°F)
Dewpoint: 18.0°C (64°F) [RH = 83%]
Pressure (altimeter): 30.12 inches Hg (1020.0 mb)
Winds: from the NW (310 degrees) at 3 MPH (3 knots; 1.5 m/s)
Visibility: 6 or more miles (10+ km)
Ceiling: ceiling and visibility are OK
Clouds: unknown
Weather: no significant weather observed at this time

METAR text: LIED 220455Z 01002KT CAVOK 20/17 Q1020 RMK SKC VIS MIN 9999 WIND THR35 36003KT WIND THR17 /////KT BLU
Conditions at: LIED (DECIMOMANNU(IT-A, IT) observed 0455 UTC 22 July 2019
Temperature: 20.0°C (68°F)
Dewpoint: 17.0°C (63°F) [RH = 83%]
Pressure (altimeter): 30.12 inches Hg (1020.0 mb)
Winds: from the N (10 degrees) at 2 MPH (2 knots; 1.0 m/s)
Visibility: 6 or more miles (10+ km)
Ceiling: ceiling and visibility are OK
Clouds: unknown
Weather: no significant weather observed at this time

METAR text: LIED 220355Z 35004KT CAVOK 20/17 Q1020 RMK SKC VIS MIN 9999 WIND THR35 34003KT WIND THR17 /////KT BLU
Conditions at: LIED (DECIMOMANNU(IT-A, IT) observed 0355 UTC 22 July 2019
Temperature: 20.0°C (68°F)
Dewpoint: 17.0°C (63°F) [RH = 83%]
Pressure (altimeter): 30.12 inches Hg (1020.0 mb)
Winds: from the N (350 degrees) at 5 MPH (4 knots; 2.1 m/s)
Visibility: 6 or more miles (10+ km)
Ceiling: ceiling and visibility are OK
Clouds: unknown
Weather: no significant weather observed at this time

METAR text: LIED 220255Z 32003KT CAVOK 21/18 Q1020 RMK SKC VIS MIN 9999 WIND THR35 32002KT WIND THR17 /////KT BLU
Conditions at: LIED (DECIMOMANNU(IT-A, IT) observed 0255 UTC 22 July 2019
Temperature: 21.0°C (70°F)
Dewpoint: 18.0°C (64°F) [RH = 83%]
Pressure (altimeter): 30.12 inches Hg (1020.0 mb)
Winds: from the NW (320 degrees) at 3 MPH (3 knots; 1.5 m/s)
Visibility: 6 or more miles (10+ km)
Ceiling: ceiling and visibility are OK
Clouds: unknown
Weather: no significant weather observed at this time

METAR text: LIED 220155Z 05002KT CAVOK 21/18 Q1020 RMK SKC VIS MIN 9999 WIND THR35 04002KT WIND THR17 /////KT BLU
Conditions at: LIED (DECIMOMANNU(IT-A, IT) observed 0155 UTC 22 July 2019
Temperature: 21.0°C (70°F)
Dewpoint: 18.0°C (64°F) [RH = 83%]
Pressure (altimeter): 30.12 inches Hg (1020.0 mb)
Winds: from the NE (50 degrees) at 2 MPH (2 knots; 1.0 m/s)
Visibility: 6 or more miles (10+ km)
Ceiling: ceiling and visibility are OK
Clouds: unknown
Weather: no significant weather observed at this time

METAR text: LIED 220055Z 04004KT CAVOK 22/19 Q1020 RMK SKC VIS MIN 9999 WIND THR35 05003KT WIND THR17 /////KT BLU
Conditions at: LIED (DECIMOMANNU(IT-A, IT) observed 0055 UTC 22 July 2019
Temperature: 22.0°C (72°F)
Dewpoint: 19.0°C (66°F) [RH = 83%]
Pressure (altimeter): 30.12 inches Hg (1020.0 mb)
Winds: from the NE (40 degrees) at 5 MPH (4 knots; 2.1 m/s)
Visibility: 6 or more miles (10+ km)
Ceiling: ceiling and visibility are OK
Clouds: unknown
Weather: no significant weather observed at this time

METAR text: LIED 212355Z 09002KT CAVOK 24/21 Q1020 RMK SKC VIS MIN 9999 WIND THR35 10003KT WIND THR17 /////KT BLU
Conditions at: LIED (DECIMOMANNU(IT-A, IT) observed 2355 UTC 21 July 2019
Temperature: 24.0°C (75°F)
Dewpoint: 21.0°C (70°F) [RH = 83%]
Pressure (altimeter): 30.12 inches Hg (1020.0 mb)
Winds: from the E (90 degrees) at 2 MPH (2 knots; 1.0 m/s)
Visibility: 6 or more miles (10+ km)
Ceiling: ceiling and visibility are OK
Clouds: unknown
Weather: no significant weather observed at this time

METAR text: LIED 212255Z 10002KT CAVOK 24/21 Q1020 RMK SKC VIS MIN 9999 WIND THR35 13002KT WIND THR17 /////KT BLU
Conditions at: LIED (DECIMOMANNU(IT-A, IT) observed 2255 UTC 21 July 2019
Temperature: 24.0°C (75°F)
Dewpoint: 21.0°C (70°F) [RH = 83%]
Pressure (altimeter): 30.12 inches Hg (1020.0 mb)
Winds: from the E (100 degrees) at 2 MPH (2 knots; 1.0 m/s)
Visibility: 6 or more miles (10+ km)
Ceiling: ceiling and visibility are OK
Clouds: unknown
Weather: no significant weather observed at this time

METAR text: LIED 212155Z 09005KT CAVOK 24/21 Q1020 RMK SKC VIS MIN 9999 WIND THR35 10005KT WIND THR17 /////KT BLU
Conditions at: LIED (DECIMOMANNU(IT-A, IT) observed 2155 UTC 21 July 2019
Temperature: 24.0°C (75°F)
Dewpoint: 21.0°C (70°F) [RH = 83%]
Pressure (altimeter): 30.12 inches Hg (1020.0 mb)
Winds: from the E (90 degrees) at 6 MPH (5 knots; 2.6 m/s)
Visibility: 6 or more miles (10+ km)
Ceiling: ceiling and visibility are OK
Clouds: unknown
Weather: no significant weather observed at this time

METAR text: LIED 212055Z 08005KT CAVOK 24/21 Q1020 RMK SKC VIS MIN 9999 WIND THR35 09005KT WIND THR17 /////KT BLU
Conditions at: LIED (DECIMOMANNU(IT-A, IT) observed 2055 UTC 21 July 2019
Temperature: 24.0°C (75°F)
Dewpoint: 21.0°C (70°F) [RH = 83%]
Pressure (altimeter): 30.12 inches Hg (1020.0 mb)
Winds: from the E (80 degrees) at 6 MPH (5 knots; 2.6 m/s)
Visibility: 6 or more miles (10+ km)
Ceiling: ceiling and visibility are OK
Clouds: unknown
Weather: no significant weather observed at this time

Forecast for: LIED (DECIMOMANNU(IT-A, IT)
Text: TAF LIED 230800Z 2309/2318 VRB03KT CAVOK
Forecast period: 0900 to 1800 UTC 23 July 2019
Forecast type: FROM: standard forecast or significant change
Winds: variable direction winds at 3 MPH (3 knots; 1.5 m/s)
Visibility: 6 or more miles 10+ km)
Ceiling: unknown
Clouds: missing
Weather: NSW  (no significant weather)
Text: TEMPO 2312/2317 15013KT
Forecast period: 1200 to 1700 UTC 23 July 2019
Forecast type: TEMPORARY: The following changes expected for less than half the time period
Winds: from the SSE (150 degrees) at 15 MPH (13 knots; 6.7 m/s)
Visibility: missing
Ceiling: unknown
Clouds: missing
Weather: no significant weather forecast for this period